Time;durP1;ratioP1;P1;durP2;ratioP2;P2;SDS_P1;SDS_P2;PMS_P1;PMS_P2;Temp;Humidity;BMP_temperature;BMP_pressure;BME280_temperature;BME280_humidity;BME280_pressure;Samples;Min_cycle;Max_cycle;Signal;HPM_P1;HPM_P2
2023/03/19 00:02:01;;;;;;;8.50;7.70;;;13.50;1.00;;;;;;5096964;28;20552;-46
2023/03/19 00:04:27;;;;;;;8.20;7.33;;;13.50;1.00;;;;;;5098460;28;20529;-46
2023/03/19 00:06:53;;;;;;;10.87;7.87;;;13.40;1.00;;;;;;5098019;28;20572;-46
2023/03/19 00:09:20;;;;;;;9.53;8.30;;;13.40;1.00;;;;;;5097481;28;20425;-45
2023/03/19 00:11:46;;;;;;;12.90;8.10;;;13.30;1.00;;;;;;5096666;28;20410;-46
2023/03/19 00:14:12;;;;;;;10.70;8.40;;;13.30;1.00;;;;;;5096591;28;20471;-45
2023/03/19 00:16:37;;;;;;;10.07;8.27;;;13.20;1.00;;;;;;5096660;28;20489;-46
2023/03/19 00:19:03;;;;;;;9.03;8.23;;;13.20;1.00;;;;;;5096675;28;20242;-45
2023/03/19 00:21:31;;;;;;;10.10;7.93;;;13.10;1.00;;;;;;5096894;28;20184;-46
2023/03/19 00:23:59;;;;;;;8.10;7.30;;;13.10;1.00;;;;;;5095710;28;20452;-46
2023/03/19 00:26:30;;;;;;;8.53;7.63;;;13.10;1.00;;;;;;5095233;28;20993;-44
2023/03/19 00:28:56;;;;;;;9.00;7.80;;;13.00;1.00;;;;;;5097339;28;20668;-46
2023/03/19 00:31:22;;;;;;;10.10;7.57;;;13.00;1.00;;;;;;5098197;28;20418;-44
2023/03/19 00:33:48;;;;;;;10.27;8.23;;;13.00;1.00;;;;;;5097938;28;20470;-46
2023/03/19 00:36:15;;;;;;;9.43;7.77;;;13.00;1.00;;;;;;5095254;28;20777;-45
2023/03/19 00:38:41;;;;;;;10.70;7.77;;;12.90;1.00;;;;;;5095132;28;20440;-43
2023/03/19 00:41:07;;;;;;;9.83;8.00;;;12.90;1.00;;;;;;5093795;28;20854;-45
2023/03/19 00:43:32;;;;;;;7.80;7.00;;;12.90;1.00;;;;;;5094928;28;20425;-44
2023/03/19 00:45:58;;;;;;;8.57;6.97;;;12.90;1.00;;;;;;5096845;28;20534;-46
2023/03/19 00:48:24;;;;;;;10.60;6.97;;;12.90;1.00;;;;;;5097653;28;20187;-48
2023/03/19 00:50:50;;;;;;;9.13;7.93;;;12.90;1.00;;;;;;5079135;28;20274;-44
2023/03/19 00:53:16;;;;;;;8.00;7.20;;;12.90;1.00;;;;;;5096886;28;20430;-44
2023/03/19 00:55:42;;;;;;;8.13;7.33;;;12.80;1.00;;;;;;5095735;28;20820;-49
2023/03/19 00:58:09;;;;;;;9.90;7.70;;;12.80;1.00;;;;;;5095352;28;20298;-45
2023/03/19 01:00:35;;;;;;;8.57;7.70;;;12.80;1.00;;;;;;5095293;28;20184;-48
2023/03/19 01:03:01;;;;;;;9.93;7.63;;;12.80;1.00;;;;;;5094629;28;20482;-45
2023/03/19 01:05:27;;;;;;;8.77;7.53;;;12.80;1.00;;;;;;5096316;28;20904;-46
2023/03/19 01:07:52;;;;;;;9.17;7.90;;;12.80;1.00;;;;;;5096178;28;20268;-43
2023/03/19 01:10:19;;;;;;;10.20;8.13;;;12.80;1.00;;;;;;5096448;28;20657;-44
2023/03/19 01:12:45;;;;;;;9.20;7.70;;;12.80;1.00;;;;;;5095263;28;20492;-43
2023/03/19 01:15:10;;;;;;;7.87;6.80;;;12.80;1.00;;;;;;5094851;28;20816;-46
2023/03/19 01:17:36;;;;;;;8.90;7.10;;;12.80;1.00;;;;;;5093911;28;20204;-46
2023/03/19 01:20:03;;;;;;;8.83;8.00;;;12.80;1.00;;;;;;5094927;28;20448;-46
2023/03/19 01:22:29;;;;;;;9.10;7.80;;;12.80;1.00;;;;;;5094743;28;20486;-46
2023/03/19 01:24:54;;;;;;;9.90;7.63;;;12.80;1.00;;;;;;5094770;28;20399;-45
2023/03/19 01:27:21;;;;;;;8.73;7.27;;;12.80;1.00;;;;;;5095432;28;20644;-47
2023/03/19 01:29:46;;;;;;;8.50;6.43;;;12.70;1.00;;;;;;5096675;28;20180;-47
2023/03/19 01:32:12;;;;;;;8.50;6.63;;;12.70;1.00;;;;;;5096739;28;20430;-44
2023/03/19 01:34:38;;;;;;;10.67;6.43;;;12.70;1.00;;;;;;5097009;28;20172;-46
2023/03/19 01:37:03;;;;;;;6.30;5.30;;;12.70;1.00;;;;;;5096304;28;20469;-45
2023/03/19 01:39:29;;;;;;;5.20;4.57;;;12.70;1.00;;;;;;5096391;28;20218;-45
2023/03/19 01:41:55;;;;;;;5.90;4.13;;;12.70;1.00;;;;;;5096718;28;20200;-45
2023/03/19 01:44:27;;;;;;;4.00;3.50;;;12.70;1.00;;;;;;5095190;28;20259;-44
2023/03/19 01:47:07;;;;;;;6.60;3.60;;;12.70;1.00;;;;;;5096448;28;20549;-46
2023/03/19 01:49:41;;;;;;;4.10;3.70;;;12.60;1.00;;;;;;5096351;28;20410;-44
2023/03/19 01:52:07;;;;;;;4.47;3.43;;;12.60;1.00;;;;;;5096428;28;20454;-48
2023/03/19 01:54:33;;;;;;;5.50;4.10;;;12.60;1.00;;;;;;5095981;28;20440;-48
2023/03/19 01:57:02;;;;;;;4.23;3.80;;;12.60;1.00;;;;;;5094719;28;20469;-46
2023/03/19 01:59:32;;;;;;;5.30;3.93;;;12.60;1.00;;;;;;5096830;28;20497;-46
2023/03/19 02:02:02;;;;;;;4.27;3.20;;;12.50;1.00;;;;;;5095985;28;20510;-46
2023/03/19 02:04:31;;;;;;;6.30;4.13;;;12.50;1.00;;;;;;5095256;28;20422;-45
2023/03/19 02:06:57;;;;;;;4.50;4.10;;;12.50;1.00;;;;;;5093910;28;20766;-48
2023/03/19 02:09:24;;;;;;;4.30;3.80;;;12.50;1.00;;;;;;5094363;28;20484;-47
2023/03/19 02:11:50;;;;;;;4.80;3.37;;;12.50;1.00;;;;;;5094734;28;20433;-47
2023/03/19 02:14:15;;;;;;;4.80;3.90;;;12.50;29.30;;;;;;5094828;28;20664;-48
2023/03/19 02:16:41;;;;;;;5.07;3.90;;;12.50;97.40;;;;;;5096737;28;20227;-48
2023/03/19 02:19:10;;;;;;;3.63;3.33;;;12.50;99.90;;;;;;5096425;28;20458;-47
2023/03/19 02:21:36;;;;;;;4.23;3.80;;;12.40;99.90;;;;;;5095265;28;20242;-44
2023/03/19 02:24:12;;;;;;;4.00;3.43;;;12.40;99.90;;;;;;5095085;28;20419;-47
2023/03/19 02:26:39;;;;;;;3.90;3.33;;;12.40;1.00;;;;;;5096100;28;20307;-45
2023/03/19 02:29:05;;;;;;;4.23;3.80;;;12.40;1.00;;;;;;5096042;28;20426;-43
2023/03/19 02:31:30;;;;;;;6.67;3.80;;;12.40;1.00;;;;;;5096259;28;20827;-49
2023/03/19 02:33:57;;;;;;;4.03;3.63;;;12.40;32.60;;;;;;5095213;28;20172;-48
2023/03/19 02:36:23;;;;;;;4.60;3.77;;;12.30;99.90;;;;;;5095455;28;20275;-49
2023/03/19 02:38:49;;;;;;;5.37;3.70;;;12.30;99.90;;;;;;5095879;28;20513;-46
2023/03/19 02:41:15;;;;;;;7.70;4.30;;;12.30;1.00;;;;;;5094230;28;20219;-44
2023/03/19 02:43:41;;;;;;;4.30;3.63;;;12.30;1.00;;;;;;5095672;28;20851;-46
2023/03/19 02:46:11;;;;;;;4.10;3.70;;;12.30;1.00;;;;;;5095386;28;20176;-43
2023/03/19 02:48:37;;;;;;;4.90;3.67;;;12.20;1.00;;;;;;5096130;28;20445;-46
2023/03/19 02:51:03;;;;;;;4.30;3.80;;;12.20;1.00;;;;;;5094852;28;20855;-46
2023/03/19 02:56:51;;;;;;;6.63;3.77;;;12.20;18.60;;;;;;5095284;28;20831;-45
2023/03/19 02:59:17;;;;;;;3.90;3.33;;;12.20;18.40;;;;;;5094829;28;20418;-43
2023/03/19 03:01:43;;;;;;;4.67;4.03;;;12.20;4.20;;;;;;5095585;28;20493;-47
2023/03/19 03:04:08;;;;;;;3.90;3.30;;;12.20;1.00;;;;;;5095602;28;20410;-43
2023/03/19 03:06:34;;;;;;;4.77;3.77;;;12.20;32.80;;;;;;5095699;28;20177;-45
2023/03/19 03:09:00;;;;;;;5.40;4.50;;;12.20;56.80;;;;;;5096140;28;20195;-44
2023/03/19 03:11:25;;;;;;;4.27;3.87;;;12.20;99.90;;;;;;5100425;28;20188;-46
2023/03/19 03:13:51;;;;;;;4.93;4.07;;;12.20;99.90;;;;;;5100253;28;20169;-46
2023/03/19 03:16:17;;;;;;;4.70;3.50;;;12.20;99.90;;;;;;5100165;28;20218;-44
2023/03/19 03:18:42;;;;;;;4.00;3.60;;;12.20;99.90;;;;;;5099645;28;20606;-44
2023/03/19 03:21:09;;;;;;;4.67;3.90;;;12.20;99.90;;;;;;5100214;28;20184;-44
2023/03/19 03:23:35;;;;;;;4.93;4.20;;;12.20;99.90;;;;;;5099721;28;20176;-46
2023/03/19 03:26:01;;;;;;;4.10;3.70;;;12.20;99.90;;;;;;5099039;28;20619;-44
2023/03/19 03:28:27;;;;;;;4.67;4.17;;;12.10;99.90;;;;;;5100405;28;20438;-43
2023/03/19 03:31:00;;;;;;;5.07;4.13;;;12.10;99.90;;;;;;5099651;28;20542;-47
2023/03/19 03:33:26;;;;;;;5.23;3.90;;;12.10;99.90;;;;;;5098984;28;20434;-44
2023/03/19 03:35:51;;;;;;;5.63;4.43;;;12.10;99.90;;;;;;5099840;28;20484;-45
2023/03/19 03:38:17;;;;;;;6.33;4.37;;;12.20;99.90;;;;;;5100835;28;20588;-45
2023/03/19 03:40:42;;;;;;;4.67;3.83;;;12.10;99.90;;;;;;5100051;28;20176;-46
2023/03/19 03:43:09;;;;;;;4.50;3.40;;;12.20;99.90;;;;;;5099915;28;20486;-44
2023/03/19 03:45:35;;;;;;;4.00;3.60;;;12.10;1.00;;;;;;5098498;28;20191;-47
2023/03/19 03:48:01;;;;;;;4.23;3.77;;;12.10;1.00;;;;;;5098343;28;20872;-43
2023/03/19 03:50:26;;;;;;;4.23;3.83;;;12.10;1.00;;;;;;5098229;28;20410;-45
2023/03/19 03:52:52;;;;;;;5.70;4.10;;;12.10;1.00;;;;;;5097929;28;20188;-45
2023/03/19 03:55:18;;;;;;;4.30;3.90;;;12.10;1.00;;;;;;5097705;28;20187;-48
2023/03/19 03:57:43;;;;;;;5.70;3.97;;;12.10;1.00;;;;;;5097920;28;20353;-44
2023/03/19 04:00:10;;;;;;;4.37;3.43;;;12.10;1.00;;;;;;5098105;28;20173;-45
2023/03/19 04:02:35;;;;;;;4.20;3.80;;;12.10;1.00;;;;;;5096551;28;20184;-44
2023/03/19 04:05:01;;;;;;;4.60;4.10;;;12.00;1.00;;;;;;5098119;28;20415;-46
2023/03/19 04:07:26;;;;;;;3.90;3.50;;;12.00;1.00;;;;;;5096571;28;20584;-43
2023/03/19 04:09:52;;;;;;;8.50;3.33;;;12.00;99.90;;;;;;5096006;28;20374;-43
2023/03/19 04:12:18;;;;;;;4.17;3.33;;;12.00;99.90;;;;;;5095924;28;20512;-44
2023/03/19 04:14:44;;;;;;;4.17;3.20;;;12.00;99.90;;;;;;5096172;28;20482;-44
2023/03/19 04:17:09;;;;;;;3.80;3.30;;;12.00;99.90;;;;;;5096180;28;20208;-43
2023/03/19 04:19:35;;;;;;;3.37;3.07;;;12.00;99.90;;;;;;5095773;28;20516;-45
2023/03/19 04:22:02;;;;;;;4.00;3.60;;;12.00;99.90;;;;;;5095512;28;20805;-45
2023/03/19 04:24:28;;;;;;;3.97;3.50;;;12.00;99.90;;;;;;5097957;28;20181;-44
2023/03/19 04:26:53;;;;;;;3.33;3.03;;;12.00;99.90;;;;;;5097883;28;20470;-44
2023/03/19 04:29:20;;;;;;;4.80;3.43;;;12.00;99.90;;;;;;5098170;28;20601;-43
2023/03/19 04:31:45;;;;;;;3.57;3.23;;;12.00;99.90;;;;;;5097196;28;20420;-43
2023/03/19 04:34:11;;;;;;;4.40;3.37;;;12.00;99.90;;;;;;5097490;28;20445;-46
2023/03/19 04:36:37;;;;;;;4.33;3.67;;;12.00;99.90;;;;;;5097087;28;20253;-45
2023/03/19 04:39:03;;;;;;;5.03;3.60;;;12.00;95.00;;;;;;5096375;28;20422;-44
2023/03/19 04:41:29;;;;;;;6.70;3.43;;;11.90;92.10;;;;;;5096471;28;20440;-44
2023/03/19 04:43:55;;;;;;;3.50;3.20;;;11.90;57.60;;;;;;5096784;28;20441;-45
2023/03/19 04:46:20;;;;;;;4.03;3.13;;;11.90;11.90;;;;;;5096630;28;20223;-44
2023/03/19 04:48:46;;;;;;;4.33;3.33;;;11.90;1.00;;;;;;5098815;28;20477;-44
2023/03/19 04:51:12;;;;;;;5.40;3.50;;;11.90;1.00;;;;;;5098592;28;20191;-44
2023/03/19 04:53:38;;;;;;;4.47;3.50;;;11.80;1.00;;;;;;5097873;28;20184;-48
2023/03/19 04:56:05;;;;;;;5.57;4.10;;;11.80;1.00;;;;;;5096068;28;20180;-45
2023/03/19 04:58:31;;;;;;;6.33;3.67;;;11.80;1.00;;;;;;5097925;28;20626;-45
2023/03/19 05:00:57;;;;;;;7.73;4.40;;;11.80;99.90;;;;;;5098153;28;20471;-44
2023/03/19 05:03:23;;;;;;;4.27;3.87;;;11.80;99.90;;;;;;5098330;28;20196;-45
2023/03/19 05:05:48;;;;;;;4.87;3.23;;;11.80;99.90;;;;;;5098438;28;20183;-47
2023/03/19 05:08:14;;;;;;;5.87;2.80;;;11.80;99.90;;;;;;5098078;28;20267;-44
2023/03/19 05:10:40;;;;;;;3.70;3.40;;;11.80;99.90;;;;;;5098473;28;20188;-47
2023/03/19 05:13:06;;;;;;;5.33;3.67;;;11.80;99.90;;;;;;5098160;28;20241;-47
2023/03/19 05:15:32;;;;;;;3.97;3.57;;;11.80;99.90;;;;;;5098313;28;20430;-46
2023/03/19 05:17:58;;;;;;;4.80;3.60;;;11.70;57.30;;;;;;5097367;28;20211;-46
2023/03/19 05:20:24;;;;;;;4.10;3.70;;;11.80;29.00;;;;;;5098113;28;20461;-44
2023/03/19 05:22:51;;;;;;;6.20;3.60;;;11.80;52.70;;;;;;5097841;28;20184;-47
2023/03/19 05:25:17;;;;;;;5.47;4.50;;;11.80;92.90;;;;;;5096833;28;20419;-43
2023/03/19 05:27:43;;;;;;;5.27;3.90;;;11.80;99.90;;;;;;5096112;28;20804;-44
2023/03/19 05:30:09;;;;;;;3.90;3.60;;;11.80;99.90;;;;;;5096386;28;20520;-43
2023/03/19 05:32:36;;;;;;;4.20;3.80;;;11.80;99.90;;;;;;5095370;28;20225;-44
2023/03/19 05:35:02;;;;;;;5.23;4.20;;;11.80;99.90;;;;;;5096179;28;20418;-43
2023/03/19 05:37:28;;;;;;;4.50;3.70;;;11.80;99.90;;;;;;5096621;28;20509;-44
2023/03/19 05:39:54;;;;;;;4.20;3.77;;;11.80;99.90;;;;;;5095847;28;20449;-48
2023/03/19 05:42:20;;;;;;;5.07;4.07;;;11.70;99.90;;;;;;5096843;28;20188;-45
2023/03/19 05:44:45;;;;;;;4.20;3.60;;;11.80;99.90;;;;;;5095861;28;20482;-46
2023/03/19 05:47:11;;;;;;;4.60;3.50;;;11.70;99.90;;;;;;5096858;28;20573;-46
2023/03/19 05:49:37;;;;;;;4.33;3.93;;;11.70;99.90;;;;;;5098340;28;20218;-45
2023/03/19 05:52:02;;;;;;;4.33;3.43;;;11.70;99.90;;;;;;5097396;28;20176;-44
2023/03/19 05:54:28;;;;;;;4.43;4.03;;;11.70;99.90;;;;;;5097694;28;20546;-43
2023/03/19 05:56:54;;;;;;;4.33;3.40;;;11.70;99.90;;;;;;5096520;28;20524;-45
2023/03/19 05:59:19;;;;;;;4.63;3.70;;;11.70;99.90;;;;;;5096871;28;20585;-44
2023/03/19 06:01:45;;;;;;;3.90;3.50;;;11.70;99.90;;;;;;5094738;28;20540;-46
2023/03/19 06:04:11;;;;;;;4.03;3.30;;;11.70;99.90;;;;;;5095760;28;20176;-43
2023/03/19 06:06:37;;;;;;;4.67;3.47;;;11.70;99.90;;;;;;5096525;28;20172;-45
2023/03/19 06:09:07;;;;;;;3.90;3.60;;;11.70;99.90;;;;;;5095943;28;20184;-45
2023/03/19 06:11:33;;;;;;;3.83;3.30;;;11.70;99.90;;;;;;5096032;28;20816;-47
2023/03/19 06:13:58;;;;;;;4.57;4.03;;;11.70;99.90;;;;;;5095986;28;20528;-48
2023/03/19 06:16:24;;;;;;;4.50;3.77;;;11.80;99.90;;;;;;5096952;28;20173;-44
2023/03/19 06:18:50;;;;;;;3.60;3.30;;;11.80;99.90;;;;;;5097318;28;20216;-48
2023/03/19 06:21:16;;;;;;;3.50;3.20;;;11.90;99.90;;;;;;5096491;28;20203;-44
2023/03/19 06:23:41;;;;;;;5.00;3.90;;;11.90;99.90;;;;;;5097291;28;20430;-44
2023/03/19 06:26:08;;;;;;;4.57;4.17;;;11.90;99.90;;;;;;5097038;28;20231;-46
2023/03/19 06:28:33;;;;;;;6.10;4.07;;;11.90;99.90;;;;;;5096248;28;20497;-45
2023/03/19 06:30:59;;;;;;;4.97;3.93;;;12.00;99.90;;;;;;5096747;28;20457;-47
2023/03/19 06:33:26;;;;;;;4.50;3.90;;;12.00;99.90;;;;;;5097086;28;20252;-45
2023/03/19 06:35:52;;;;;;;4.77;3.63;;;12.10;88.90;;;;;;5096981;28;20195;-48
2023/03/19 06:38:18;;;;;;;5.10;4.37;;;12.10;24.10;;;;;;5095268;28;20481;-48
2023/03/19 06:40:43;;;;;;;5.27;4.30;;;12.10;31.60;;;;;;5095455;28;20438;-45
2023/03/19 06:43:09;;;;;;;4.60;3.73;;;12.10;45.60;;;;;;5096243;28;20180;-45
2023/03/19 06:45:35;;;;;;;3.80;3.50;;;12.10;33.40;;;;;;5099136;28;20172;-43
2023/03/19 06:48:01;;;;;;;5.20;3.80;;;12.10;1.00;;;;;;5099638;28;20550;-43
2023/03/19 06:50:27;;;;;;;6.60;3.10;;;12.10;1.00;;;;;;5098177;28;20417;-44
2023/03/19 06:52:52;;;;;;;5.80;3.77;;;12.10;1.00;;;;;;5098613;28;20254;-45
2023/03/19 06:55:19;;;;;;;4.00;3.03;;;12.10;1.00;;;;;;5098801;28;20180;-47
2023/03/19 06:57:48;;;;;;;3.17;2.83;;;12.10;1.00;;;;;;5099145;28;20212;-49
2023/03/19 07:00:14;;;;;;;3.33;3.00;;;12.10;1.00;;;;;;5099362;28;20497;-47
2023/03/19 07:02:40;;;;;;;3.93;3.13;;;12.10;99.90;;;;;;5100054;28;20452;-43
2023/03/19 07:05:07;;;;;;;3.20;2.90;;;12.10;99.90;;;;;;5100014;28;20505;-46
2023/03/19 07:07:33;;;;;;;4.50;3.87;;;12.10;99.90;;;;;;5100912;28;20783;-45
2023/03/19 07:09:59;;;;;;;4.77;3.30;;;12.20;99.90;;;;;;5100337;28;20549;-47
2023/03/19 07:12:27;;;;;;;4.40;3.20;;;12.20;99.90;;;;;;5081416;28;20434;-45
2023/03/19 07:14:55;;;;;;;3.60;3.10;;;12.20;99.90;;;;;;5098992;28;20173;-44
2023/03/19 07:17:21;;;;;;;4.00;3.40;;;12.30;99.90;;;;;;5100706;28;20754;-47
2023/03/19 07:19:47;;;;;;;3.50;3.20;;;12.40;99.90;;;;;;5099208;28;20509;-46
2023/03/19 07:22:13;;;;;;;3.43;3.00;;;12.50;99.90;;;;;;5097637;28;20534;-49
2023/03/19 07:24:38;;;;;;;7.63;3.10;;;12.60;99.90;;;;;;5080420;28;20233;-48
2023/03/19 07:27:04;;;;;;;4.70;3.60;;;12.70;99.90;;;;;;5095585;28;20740;-44
2023/03/19 07:29:30;;;;;;;2.80;2.60;;;12.70;99.90;;;;;;5096875;28;20253;-48
2023/03/19 07:31:56;;;;;;;4.10;3.00;;;12.80;99.90;;;;;;5097577;28;20422;-48
2023/03/19 07:34:22;;;;;;;4.07;2.90;;;12.90;99.90;;;;;;5098474;28;20671;-48
2023/03/19 07:36:50;;;;;;;4.37;2.97;;;13.00;99.90;;;;;;5099061;28;20430;-44
2023/03/19 07:39:15;;;;;;;4.53;2.70;;;13.10;99.90;;;;;;5100099;28;20479;-43
2023/03/19 07:41:43;;;;;;;3.93;2.90;;;13.30;92.90;;;;;;5100190;28;20414;-49
2023/03/19 07:44:09;;;;;;;2.80;2.50;;;13.50;50.10;;;;;;5100599;28;20183;-44
2023/03/19 07:46:35;;;;;;;3.23;2.93;;;13.70;18.80;;;;;;5099877;28;20414;-47
2023/03/19 07:49:02;;;;;;;3.77;2.60;;;13.90;1.00;;;;;;5099177;28;20441;-45
2023/03/19 07:51:28;;;;;;;2.90;2.60;;;14.10;1.00;;;;;;5096298;28;20471;-46
2023/03/19 07:53:54;;;;;;;3.53;2.33;;;14.30;1.00;;;;;;5098823;28;20529;-47
2023/03/19 07:56:19;;;;;;;2.77;2.47;;;14.60;1.00;;;;;;5097679;28;20329;-44
2023/03/19 07:58:45;;;;;;;3.17;2.40;;;14.80;1.00;;;;;;5096387;28;20220;-45
2023/03/19 08:01:11;;;;;;;3.87;2.43;;;14.90;1.00;;;;;;5097933;28;20214;-44
2023/03/19 08:03:37;;;;;;;3.20;2.60;;;15.00;1.00;;;;;;5099000;28;20253;-46
2023/03/19 08:06:03;;;;;;;2.80;2.60;;;15.20;1.00;;;;;;5099215;28;20192;-47
2023/03/19 08:08:29;;;;;;;3.60;2.23;;;15.30;1.00;;;;;;5098988;28;20438;-47
2023/03/19 08:10:55;;;;;;;3.50;1.97;;;15.30;1.00;;;;;;5099070;28;20760;-48
2023/03/19 08:13:21;;;;;;;3.60;2.37;;;15.40;1.00;;;;;;5098450;28;20534;-45
2023/03/19 08:15:49;;;;;;;4.80;2.70;;;15.60;1.00;;;;;;5098208;28;20425;-47
2023/03/19 08:18:15;;;;;;;3.30;2.77;;;15.60;1.00;;;;;;5097302;28;20543;-49
2023/03/19 08:20:43;;;;;;;5.53;3.00;;;15.80;1.00;;;;;;5094858;28;20524;-49
2023/03/19 08:23:09;;;;;;;4.70;3.03;;;15.90;1.00;;;;;;5095274;28;20458;-45
2023/03/19 08:25:35;;;;;;;4.00;2.90;;;16.00;1.00;;;;;;5095831;28;20848;-45
2023/03/19 08:28:01;;;;;;;3.33;2.37;;;16.20;1.00;;;;;;5095938;28;20598;-46
2023/03/19 08:30:26;;;;;;;5.17;2.27;;;16.40;1.00;;;;;;5096434;28;20184;-46
2023/03/19 08:32:52;;;;;;;2.80;2.30;;;16.60;1.00;;;;;;5095008;28;20499;-45
2023/03/19 08:35:18;;;;;;;2.53;1.87;;;16.90;1.00;;;;;;5095822;28;20184;-47
2023/03/19 08:37:44;;;;;;;3.00;2.20;;;17.20;1.00;;;;;;5096673;28;20315;-46
2023/03/19 08:40:10;;;;;;;2.30;2.10;;;17.50;1.00;;;;;;5096763;28;20501;-45
2023/03/19 08:42:40;;;;;;;3.77;2.53;;;17.80;1.00;;;;;;5096739;28;20499;-46
2023/03/19 08:45:08;;;;;;;2.60;1.80;;;18.10;1.00;;;;;;5096015;28;20429;-44
2023/03/19 08:47:34;;;;;;;1.90;1.70;;;18.20;1.00;;;;;;5095619;28;20435;-48
2023/03/19 08:49:59;;;;;;;2.60;1.90;;;18.40;1.00;;;;;;5095001;28;20757;-45
2023/03/19 08:52:25;;;;;;;3.10;2.17;;;18.80;1.00;;;;;;5096717;28;20177;-48
2023/03/19 08:54:51;;;;;;;2.93;1.87;;;19.20;1.00;;;;;;5095090;28;20180;-47
2023/03/19 08:57:16;;;;;;;3.50;2.30;;;19.40;1.00;;;;;;5094551;28;20689;-46
2023/03/19 08:59:42;;;;;;;4.30;1.97;;;19.70;1.00;;;;;;5094398;28;20198;-47
2023/03/19 09:02:10;;;;;;;2.60;2.00;;;19.90;1.00;;;;;;5096278;28;20216;-48
2023/03/19 09:04:37;;;;;;;3.67;2.00;;;20.20;1.00;;;;;;5093988;28;20237;-47
2023/03/19 09:07:03;;;;;;;3.13;2.00;;;20.30;1.00;;;;;;5090899;28;20529;-48
2023/03/19 09:09:29;;;;;;;3.50;2.10;;;20.40;1.00;;;;;;5093578;28;20914;-45
2023/03/19 09:11:55;;;;;;;4.00;2.23;;;20.70;1.00;;;;;;5094043;28;20418;-46
2023/03/19 09:14:21;;;;;;;2.87;1.90;;;20.90;1.00;;;;;;5095672;28;20550;-45
2023/03/19 09:16:47;;;;;;;3.13;2.30;;;21.20;1.00;;;;;;5096048;28;20241;-45
2023/03/19 09:19:13;;;;;;;2.80;1.97;;;21.40;1.00;;;;;;5097167;28;20517;-49
2023/03/19 09:21:39;;;;;;;2.53;2.30;;;21.60;1.00;;;;;;5096237;28;20564;-45
2023/03/19 09:24:05;;;;;;;2.90;2.10;;;22.10;1.00;;;;;;5094367;28;20478;-47
2023/03/19 09:26:31;;;;;;;2.60;1.97;;;22.50;1.00;;;;;;5093421;28;20232;-47
2023/03/19 09:28:57;;;;;;;2.37;1.90;;;22.70;1.00;;;;;;5094234;28;20713;-45
2023/03/19 09:31:23;;;;;;;3.73;2.17;;;23.50;1.00;;;;;;5091241;28;20253;-46
2023/03/19 09:33:49;;;;;;;2.50;2.03;;;24.40;1.00;;;;;;5093279;28;20434;-47
2023/03/19 09:36:15;;;;;;;2.47;1.87;;;25.60;1.00;;;;;;5092736;28;20693;-49
2023/03/19 09:38:41;;;;;;;3.03;2.10;;;26.50;1.00;;;;;;5093152;28;20470;-47
2023/03/19 09:41:17;;;;;;;2.90;1.87;;;27.70;1.00;;;;;;5094527;28;20244;-46
2023/03/19 09:43:59;;;;;;;2.90;2.27;;;29.10;1.00;;;;;;5096971;28;20282;-46
2023/03/19 09:46:34;;;;;;;4.20;2.70;;;30.20;1.00;;;;;;5095959;28;20406;-47
2023/03/19 09:49:08;;;;;;;3.10;2.20;;;31.00;1.00;;;;;;5095246;28;20430;-47
2023/03/19 09:51:46;;;;;;;4.30;2.40;;;31.40;1.00;;;;;;5095331;28;20428;-46
2023/03/19 09:54:47;;;;;;;3.47;2.30;;;31.70;1.00;;;;;;5094146;28;20683;-45
2023/03/19 09:57:14;;;;;;;2.60;2.40;;;31.80;1.00;;;;;;5073127;28;20492;-46
2023/03/19 09:59:40;;;;;;;2.50;2.30;;;31.80;1.00;;;;;;5092541;28;20454;-45
2023/03/19 10:02:21;;;;;;;2.47;2.27;;;31.50;1.00;;;;;;5089708;28;20474;-48
2023/03/19 10:04:49;;;;;;;3.17;2.43;;;31.20;99.90;;;;;;5088672;28;21007;-45
2023/03/19 10:07:18;;;;;;;3.40;2.50;;;30.50;99.90;;;;;;5094756;28;20512;-46
2023/03/19 10:09:46;;;;;;;2.63;2.43;;;29.90;1.00;;;;;;5095392;28;20385;-44
2023/03/19 10:12:40;;;;;;;3.30;2.57;;;29.80;1.00;;;;;;5094425;28;20450;-45
2023/03/19 10:15:18;;;;;;;3.67;2.83;;;30.30;1.00;;;;;;5087505;28;20675;-46
2023/03/19 10:17:54;;;;;;;2.40;2.20;;;30.70;1.00;;;;;;5094503;28;20862;-48
2023/03/19 10:20:27;;;;;;;2.67;2.23;;;31.10;1.00;;;;;;5095928;28;20393;-44
2023/03/19 10:23:11;;;;;;;2.93;2.30;;;31.40;1.00;;;;;;5094577;28;20699;-44
2023/03/19 10:25:39;;;;;;;3.77;2.60;;;32.00;1.00;;;;;;5094453;28;20446;-48
2023/03/19 10:28:17;;;;;;;2.30;1.97;;;32.50;1.00;;;;;;5094809;28;20424;-47
2023/03/19 10:31:12;;;;;;;2.10;1.90;;;33.20;1.00;;;;;;5095142;28;20465;-47
2023/03/19 10:33:52;;;;;;;2.93;2.63;;;33.40;1.00;;;;;;5094748;28;20406;-47
2023/03/19 10:36:19;;;;;;;2.50;2.30;;;34.20;1.00;;;;;;5093284;28;20405;-47
2023/03/19 10:38:45;;;;;;;3.93;2.30;;;35.20;1.00;;;;;;5093060;28;20959;-45
2023/03/19 10:41:16;;;;;;;3.70;2.30;;;36.40;1.00;;;;;;5095406;28;20422;-45
2023/03/19 10:43:46;;;;;;;2.90;2.30;;;37.20;1.00;;;;;;5093396;28;20184;-48
2023/03/19 10:46:13;;;;;;;2.57;2.30;;;37.20;1.00;;;;;;5091980;28;20674;-44
2023/03/19 10:48:44;;;;;;;2.70;2.50;;;37.00;1.00;;;;;;5092140;28;20635;-49
2023/03/19 10:51:14;;;;;;;4.80;2.40;;;36.60;1.00;;;;;;5091377;28;20419;-45
2023/03/19 10:53:40;;;;;;;3.90;2.87;;;36.70;1.00;;;;;;5093885;28;20886;-45
2023/03/19 10:56:06;;;;;;;5.90;2.50;;;36.50;1.00;;;;;;5093992;28;20700;-47
2023/03/19 10:58:35;;;;;;;4.33;2.70;;;36.30;1.00;;;;;;5093735;28;20466;-44
2023/03/19 11:01:10;;;;;;;3.40;2.20;;;36.30;99.90;;;;;;5090627;28;20271;-44
2023/03/19 11:03:50;;;;;;;3.50;2.40;;;36.10;99.90;;;;;;5091980;28;20445;-45
2023/03/19 11:06:17;;;;;;;6.10;2.30;;;35.70;99.90;;;;;;5093241;28;20813;-45
2023/03/19 11:08:46;;;;;;;4.60;2.20;;;35.30;99.90;;;;;;5090575;28;20760;-46
2023/03/19 11:11:25;;;;;;;3.63;2.83;;;34.50;99.90;;;;;;5091297;28;20423;-45
2023/03/19 11:13:51;;;;;;;2.47;2.10;;;33.80;99.90;;;;;;5091864;28;20422;-47
2023/03/19 11:16:16;;;;;;;2.60;2.40;;;32.70;99.90;;;;;;5076914;28;21007;-45
2023/03/19 11:18:46;;;;;;;2.80;2.20;;;32.10;99.90;;;;;;5095234;28;20487;-45
2023/03/19 11:21:31;;;;;;;2.63;2.33;;;31.60;99.90;;;;;;5094900;28;20214;-45
2023/03/19 11:24:02;;;;;;;3.27;2.73;;;31.20;99.90;;;;;;5094788;28;20416;-48
2023/03/19 11:26:28;;;;;;;3.80;2.53;;;31.20;99.90;;;;;;5094243;28;20474;-46
2023/03/19 11:29:01;;;;;;;3.37;2.20;;;31.00;99.90;;;;;;5093137;28;20732;-47
2023/03/19 11:31:49;;;;;;;3.63;2.80;;;30.90;99.90;;;;;;5096997;28;20460;-46
2023/03/19 11:34:20;;;;;;;3.60;2.27;;;30.80;99.90;;;;;;5096024;28;20408;-49
2023/03/19 11:36:51;;;;;;;2.80;2.60;;;30.60;99.90;;;;;;5079167;28;20607;-45
2023/03/19 11:39:33;;;;;;;3.87;2.30;;;30.40;99.90;;;;;;5097299;28;20400;-45
2023/03/19 11:42:36;;;;;;;3.97;2.63;;;30.20;99.90;;;;;;5096855;28;20801;-47
2023/03/19 11:45:30;;;;;;;3.17;2.60;;;29.90;99.90;;;;;;5097505;28;20447;-47
2023/03/19 11:48:24;;;;;;;2.50;2.03;;;29.90;99.90;;;;;;5096469;28;20521;-50
2023/03/19 11:50:55;;;;;;;2.97;2.20;;;29.90;99.90;;;;;;5097251;28;20436;-47
2023/03/19 11:53:29;;;;;;;3.47;2.30;;;30.00;99.90;;;;;;5097423;28;20468;-46
2023/03/19 11:56:13;;;;;;;3.67;2.30;;;30.60;99.90;;;;;;5094900;28;20730;-47
2023/03/19 11:58:57;;;;;;;3.83;2.30;;;31.40;99.90;;;;;;5097167;28;20545;-46
2023/03/19 12:01:48;;;;;;;3.00;2.50;;;31.80;99.90;;;;;;5096051;28;20484;-45
2023/03/19 12:04:28;;;;;;;3.33;2.10;;;31.60;99.90;;;;;;5097110;28;20385;-44
2023/03/19 12:07:12;;;;;;;4.60;2.60;;;31.30;99.90;;;;;;5097574;28;20410;-47
2023/03/19 12:09:59;;;;;;;3.53;2.50;;;30.70;99.90;;;;;;5097762;28;20721;-47
2023/03/19 12:13:00;;;;;;;2.80;2.30;;;30.30;99.90;;;;;;5095609;28;20992;-47
2023/03/19 12:15:45;;;;;;;3.60;2.40;;;30.00;99.90;;;;;;5088766;28;20462;-46
2023/03/19 12:18:38;;;;;;;2.33;1.93;;;30.30;99.90;;;;;;5089896;28;21094;-49
2023/03/19 12:21:32;;;;;;;2.63;2.10;;;31.80;99.90;;;;;;5097297;28;20501;-48
2023/03/19 12:24:22;;;;;;;2.60;2.27;;;32.20;99.90;;;;;;5093590;28;20397;-45
2023/03/19 12:27:15;;;;;;;2.80;2.53;;;31.80;99.90;;;;;;5093678;28;20480;-45
2023/03/19 12:29:42;;;;;;;3.50;2.73;;;31.20;99.90;;;;;;5096181;28;20393;-47
2023/03/19 12:32:32;;;;;;;3.30;2.30;;;30.70;99.90;;;;;;5095173;28;20381;-48
2023/03/19 12:35:01;;;;;;;2.50;2.10;;;30.30;99.90;;;;;;5096773;28;20392;-46
2023/03/19 12:38:07;;;;;;;3.27;2.10;;;29.90;99.90;;;;;;5097087;28;20537;-48
2023/03/19 12:41:02;;;;;;;6.30;2.77;;;29.40;99.90;;;;;;5094765;28;20608;-41
2023/03/19 12:43:38;;;;;;;3.37;2.60;;;28.80;99.90;;;;;;5094938;28;20560;-45
2023/03/19 12:46:36;;;;;;;5.03;2.77;;;28.20;99.90;;;;;;5096724;28;20806;-42
2023/03/19 12:49:09;;;;;;;3.27;2.30;;;27.50;99.90;;;;;;5038737;28;20522;-45
2023/03/19 12:51:37;;;;;;;3.40;2.60;;;26.70;99.90;;;;;;5094741;28;20859;-43
2023/03/19 12:54:13;;;;;;;5.70;2.30;;;26.30;99.90;;;;;;5094857;28;20433;-44
2023/03/19 12:56:43;;;;;;;3.33;2.10;;;26.00;99.90;;;;;;5094468;28;20431;-46
2023/03/19 12:59:08;;;;;;;5.00;2.30;;;25.80;99.90;;;;;;5095059;28;20548;-43
2023/03/19 13:01:44;;;;;;;3.03;2.20;;;25.70;99.90;;;;;;5096818;28;20751;-46
2023/03/19 13:04:18;;;;;;;2.80;2.17;;;25.60;99.90;;;;;;5094536;28;20192;-44